createdAt,value
2023-05-06T00:01:52.615Z,101296.48
2023-05-06T00:04:22.468Z,101294.36
2023-05-06T00:06:52.739Z,101294.02
2023-05-06T00:09:24.114Z,101301.29
2023-05-06T00:11:53.899Z,101300.58
2023-05-06T00:14:23.824Z,101307.73
2023-05-06T00:16:53.704Z,101311.46
2023-05-06T00:19:24.052Z,101307.70
2023-05-06T00:21:53.830Z,101305.70
2023-05-06T00:24:23.611Z,101302.30
2023-05-06T00:26:53.723Z,101302.59
2023-05-06T00:29:23.463Z,101294.13
2023-05-06T00:31:53.334Z,101288.75
2023-05-06T00:34:23.175Z,101279.76
2023-05-06T00:36:52.862Z,101268.09
2023-05-06T00:39:22.752Z,101259.54
2023-05-06T00:41:52.510Z,101245.71
2023-05-06T00:44:22.211Z,101242.34
2023-05-06T00:46:51.930Z,101241.21
2023-05-06T00:49:21.627Z,101240.88
2023-05-06T00:51:49.422Z,101236.34
2023-05-06T00:54:17.705Z,101234.90
2023-05-06T00:56:46.050Z,101233.98
2023-05-06T00:59:15.299Z,101231.26
2023-05-06T01:01:42.475Z,101225.83
2023-05-06T01:04:10.977Z,101223.75
2023-05-06T01:06:57.083Z,101215.49
2023-05-06T01:09:55.309Z,101209.90
2023-05-06T01:12:42.611Z,101217.75
2023-05-06T01:15:22.129Z,101210.73
2023-05-06T01:17:53.430Z,101206.91
2023-05-06T01:20:25.157Z,101206.13
2023-05-06T01:22:56.000Z,101201.63
2023-05-06T01:25:25.711Z,101205.73
2023-05-06T01:27:54.226Z,101202.48
2023-05-06T01:30:28.181Z,101203.80
2023-05-06T01:33:11.754Z,101199.80
2023-05-06T01:36:16.179Z,101200.73
2023-05-06T01:39:09.332Z,101200.98
2023-05-06T01:41:44.289Z,101204.98
2023-05-06T01:44:15.341Z,101206.92
2023-05-06T01:46:46.188Z,101205.54
2023-05-06T01:49:17.143Z,101210.46
2023-05-06T01:51:52.463Z,101209.31
2023-05-06T01:54:22.102Z,101201.22
2023-05-06T01:56:50.468Z,101200.27
2023-05-06T01:59:18.864Z,101197.04
2023-05-06T02:01:47.477Z,101200.92
2023-05-06T02:04:14.904Z,101204.42
2023-05-06T02:06:43.264Z,101208.71
2023-05-06T02:09:11.801Z,101215.48
2023-05-06T02:11:40.118Z,101222.35
2023-05-06T02:14:08.502Z,101224.19
2023-05-06T02:16:37.047Z,101220.77
2023-05-06T02:19:06.384Z,101213.82
2023-05-06T02:21:33.821Z,101212.36
2023-05-06T02:24:02.209Z,101213.90
2023-05-06T02:26:30.700Z,101207.17
2023-05-06T02:28:59.079Z,101210.59
2023-05-06T02:31:27.688Z,101205.63
2023-05-06T02:33:56.060Z,101208.39
2023-05-06T02:36:24.728Z,101211.39
2023-05-06T02:38:53.042Z,101210.20
2023-05-06T02:41:21.714Z,101212.43
2023-05-06T02:43:50.001Z,101216.55
2023-05-06T02:46:19.168Z,101216.53
2023-05-06T02:48:47.080Z,101215.79
2023-05-06T02:51:16.040Z,101212.41
2023-05-06T02:53:43.829Z,101207.48
2023-05-06T02:56:12.300Z,101204.95
2023-05-06T02:58:40.658Z,101204.77
2023-05-06T03:01:09.354Z,101208.02
2023-05-06T03:03:37.666Z,101207.95
2023-05-06T03:06:06.417Z,101206.59
2023-05-06T03:08:34.771Z,101206.31
2023-05-06T03:11:03.255Z,101206.95
2023-05-06T03:13:31.466Z,101204.27
2023-05-06T03:16:00.084Z,101205.17
2023-05-06T03:18:28.736Z,101206.02
2023-05-06T03:20:57.012Z,101199.29
2023-05-06T03:23:25.623Z,101201.02
2023-05-06T03:25:54.099Z,101200.77
2023-05-06T03:28:22.573Z,101201.21
2023-05-06T03:30:50.980Z,101202.46
2023-05-06T03:33:19.632Z,101197.54
2023-05-06T03:35:47.850Z,101196.55
2023-05-06T03:38:16.639Z,101193.31
2023-05-06T03:40:45.130Z,101187.04
2023-05-06T03:43:13.610Z,101184.56
2023-05-06T03:45:42.266Z,101185.29
2023-05-06T03:48:10.669Z,101186.22
2023-05-06T03:50:39.400Z,101190.11
2023-05-06T03:53:08.011Z,101187.09
2023-05-06T03:55:36.073Z,101181.33
2023-05-06T03:58:04.512Z,101178.65
2023-05-06T04:00:33.135Z,101179.63
2023-05-06T04:03:01.731Z,101179.56
2023-05-06T04:05:30.064Z,101175.66
2023-05-06T04:07:58.523Z,101170.10
2023-05-06T04:10:27.044Z,101170.98
2023-05-06T04:12:55.703Z,101173.55
2023-05-06T04:15:24.057Z,101178.02
2023-05-06T04:17:52.411Z,101180.95
2023-05-06T04:20:20.820Z,101186.65
2023-05-06T04:22:49.155Z,101185.38
2023-05-06T04:25:21.345Z,101185.09
2023-05-06T04:27:51.123Z,101190.06
2023-05-06T04:30:21.307Z,101187.02
2023-05-06T04:32:51.094Z,101190.39
2023-05-06T04:35:21.757Z,101190.65
2023-05-06T04:37:51.462Z,101189.34
2023-05-06T04:40:21.403Z,101198.21
2023-05-06T04:42:51.101Z,101198.36
2023-05-06T04:45:20.866Z,101202.48
2023-05-06T04:47:50.821Z,101202.17
2023-05-06T04:50:20.601Z,101206.89
2023-05-06T04:52:50.607Z,101210.91
2023-05-06T04:55:20.766Z,101211.94
2023-05-06T04:57:50.881Z,101214.35
2023-05-06T05:00:20.805Z,101214.55
2023-05-06T05:02:50.704Z,101213.36
2023-05-06T05:05:21.072Z,101217.33
2023-05-06T05:07:50.876Z,101220.77
2023-05-06T05:10:20.698Z,101221.58
2023-05-06T05:12:50.500Z,101226.05
2023-05-06T05:15:21.268Z,101228.46
2023-05-06T05:17:51.456Z,101229.70
2023-05-06T05:20:19.607Z,101229.80
2023-05-06T05:22:47.999Z,101228.63
2023-05-06T05:25:16.496Z,101230.48
2023-05-06T05:27:45.066Z,101230.42
2023-05-06T05:30:13.451Z,101232.47
2023-05-06T05:32:41.787Z,101234.32
2023-05-06T05:35:10.750Z,101229.48
2023-05-06T05:37:38.444Z,101224.19
2023-05-06T05:40:07.988Z,101225.05
2023-05-06T05:42:35.553Z,101225.84
2023-05-06T05:45:04.420Z,101229.89
2023-05-06T05:47:32.201Z,101236.35
2023-05-06T05:50:01.014Z,101233.05
2023-05-06T05:52:29.005Z,101234.95
2023-05-06T05:54:57.683Z,101234.42
2023-05-06T05:57:26.067Z,101234.76
2023-05-06T05:59:54.304Z,101235.55
2023-05-06T06:02:22.800Z,101236.67
2023-05-06T06:04:51.294Z,101238.90
2023-05-06T06:07:19.802Z,101240.10
2023-05-06T06:09:48.903Z,101240.45
2023-05-06T06:12:17.745Z,101237.44
2023-05-06T06:14:48.448Z,101236.40
2023-05-06T06:17:16.692Z,101239.00
2023-05-06T06:19:47.735Z,101238.09
2023-05-06T06:22:17.555Z,101247.46
2023-05-06T06:24:47.498Z,101251.66
2023-05-06T06:27:17.318Z,101252.56
2023-05-06T06:29:50.878Z,101257.17
2023-05-06T06:32:20.720Z,101259.82
2023-05-06T06:34:50.656Z,101261.68
2023-05-06T06:37:20.577Z,101263.50
2023-05-06T06:39:50.574Z,101264.96
2023-05-06T06:42:20.535Z,101266.75
2023-05-06T06:44:50.314Z,101264.67
2023-05-06T06:47:20.600Z,101264.59
2023-05-06T06:49:50.449Z,101262.77
2023-05-06T06:52:20.358Z,101265.46
2023-05-06T06:54:50.212Z,101266.85
2023-05-06T06:57:20.901Z,101266.83
2023-05-06T06:59:52.544Z,101269.17
2023-05-06T07:02:23.583Z,101271.05
2023-05-06T07:04:54.483Z,101269.06
2023-05-06T07:07:24.359Z,101266.79
2023-05-06T07:09:54.268Z,101264.59
2023-05-06T07:12:26.719Z,101261.96
2023-05-06T07:14:56.809Z,101270.36
2023-05-06T07:17:26.819Z,101272.27
2023-05-06T07:19:56.855Z,101275.76
2023-05-06T07:22:29.062Z,101283.30
2023-05-06T07:24:59.369Z,101285.70
2023-05-06T07:27:30.801Z,101283.28
2023-05-06T07:30:01.016Z,101286.61
2023-05-06T07:32:29.280Z,101284.23
2023-05-06T07:34:57.754Z,101289.36
2023-05-06T07:37:25.918Z,101289.18
2023-05-06T07:39:54.331Z,101293.38
2023-05-06T07:42:23.021Z,101292.52
2023-05-06T07:44:51.202Z,101294.24
2023-05-06T07:47:29.893Z,101292.62
2023-05-06T07:50:00.370Z,101288.67
2023-05-06T07:52:30.465Z,101294.70
2023-05-06T07:55:00.380Z,101296.46
2023-05-06T07:57:30.059Z,101288.66
2023-05-06T08:00:00.076Z,101289.92
2023-05-06T08:02:31.489Z,101295.22
2023-05-06T08:05:01.862Z,101299.60
2023-05-06T08:07:31.626Z,101301.73
2023-05-06T08:10:01.473Z,101311.41
2023-05-06T08:12:31.503Z,101314.14
2023-05-06T08:15:02.596Z,101314.46
2023-05-06T08:17:32.529Z,101316.95
2023-05-06T08:20:02.430Z,101320.67
2023-05-06T08:22:32.422Z,101322.19
2023-05-06T08:25:02.842Z,101324.34
2023-05-06T08:27:32.876Z,101324.65
2023-05-06T08:30:02.780Z,101326.81
2023-05-06T08:32:32.387Z,101321.77
2023-05-06T08:35:00.796Z,101321.27
2023-05-06T08:37:30.597Z,101320.17
2023-05-06T08:39:59.318Z,101321.27
2023-05-06T08:42:31.229Z,101325.59
2023-05-06T08:45:00.972Z,101327.77
2023-05-06T08:47:30.873Z,101330.91
2023-05-06T08:50:01.458Z,101331.32
2023-05-06T08:52:32.191Z,101334.64
2023-05-06T08:55:05.130Z,101339.27
2023-05-06T08:57:36.983Z,101341.11
2023-05-06T09:00:11.320Z,101345.95
2023-05-06T09:02:43.460Z,101348.24
2023-05-06T09:05:13.624Z,101352.29
2023-05-06T09:07:43.553Z,101356.28
2023-05-06T09:10:15.285Z,101357.69
2023-05-06T09:12:44.890Z,101356.66
2023-05-06T09:15:13.798Z,101357.92
2023-05-06T09:17:41.757Z,101361.45
2023-05-06T09:20:12.629Z,101357.09
2023-05-06T09:22:42.713Z,101357.98
2023-05-06T09:25:12.796Z,101357.47
2023-05-06T09:27:42.821Z,101361.85
2023-05-06T09:30:13.641Z,101359.77
2023-05-06T09:32:44.228Z,101363.88
2023-05-06T09:35:14.237Z,101368.77
2023-05-06T09:37:45.357Z,101366.05
2023-05-06T09:40:15.575Z,101365.95
2023-05-06T09:42:45.473Z,101366.20
2023-05-06T09:45:17.890Z,101364.61
2023-05-06T09:47:49.542Z,101359.95
2023-05-06T09:50:25.091Z,101359.20
2023-05-06T09:52:56.192Z,101364.68
2023-05-06T09:55:28.803Z,101367.64
2023-05-06T09:58:01.471Z,101368.49
2023-05-06T10:00:32.501Z,101367.95
2023-05-06T10:03:04.521Z,101370.62
2023-05-06T10:05:37.763Z,101371.05
2023-05-06T10:08:09.505Z,101375.39
2023-05-06T10:10:42.065Z,101371.17
2023-05-06T10:13:10.996Z,101373.07
2023-05-06T10:15:39.921Z,101374.11
2023-05-06T10:18:10.958Z,101376.36
2023-05-06T10:20:43.401Z,101380.30
2023-05-06T10:23:44.704Z,101389.11
2023-05-06T10:26:19.616Z,101387.90
2023-05-06T10:28:53.583Z,101390.73
2023-05-06T10:31:23.536Z,101389.46
2023-05-06T10:33:57.169Z,101387.50
2023-05-06T10:36:32.128Z,101390.15
2023-05-06T10:39:04.618Z,101391.50
2023-05-06T10:41:37.449Z,101392.35
2023-05-06T10:44:07.360Z,101388.83
2023-05-06T10:46:58.919Z,101391.17
2023-05-06T10:49:29.173Z,101389.61
2023-05-06T10:52:17.046Z,101389.16
2023-05-06T10:54:51.612Z,101391.77
2023-05-06T10:57:26.820Z,101391.80
2023-05-06T10:59:57.060Z,101392.71
2023-05-06T11:02:30.930Z,101393.60
2023-05-06T11:05:02.036Z,101393.94
2023-05-06T11:07:31.918Z,101392.81
2023-05-06T11:10:06.760Z,101394.58
2023-05-06T11:12:52.501Z,101396.13
2023-05-06T11:15:37.781Z,101395.85
2023-05-06T11:18:26.888Z,101401.52
2023-05-06T11:21:02.623Z,101402.20
2023-05-06T11:23:46.910Z,101405.70
2023-05-06T11:26:17.063Z,101409.65
2023-05-06T11:28:50.456Z,101415.88
2023-05-06T11:31:22.823Z,101421.88
2023-05-06T11:33:54.500Z,101418.13
2023-05-06T11:36:24.207Z,101420.77
2023-05-06T11:38:54.249Z,101417.17
2023-05-06T11:41:24.042Z,101419.02
2023-05-06T11:43:53.963Z,101423.11
2023-05-06T11:46:25.006Z,101424.36
2023-05-06T11:48:54.300Z,101431.62
2023-05-06T11:51:25.806Z,101431.29
2023-05-06T11:54:11.273Z,101429.59
2023-05-06T11:56:53.360Z,101435.55
2023-05-06T11:59:32.078Z,101441.45
2023-05-06T12:02:04.744Z,101449.22
2023-05-06T12:04:44.038Z,101452.17
2023-05-06T12:07:16.419Z,101453.91
2023-05-06T12:09:49.479Z,101457.40
2023-05-06T12:12:23.661Z,101457.42
2023-05-06T12:14:53.960Z,101463.13
2023-05-06T12:17:24.566Z,101464.61
2023-05-06T12:19:54.510Z,101472.90
2023-05-06T12:22:24.779Z,101474.23
2023-05-06T12:24:54.631Z,101477.33
2023-05-06T12:27:35.583Z,101477.46
2023-05-06T12:30:05.346Z,101482.61
2023-05-06T12:32:35.489Z,101487.13
2023-05-06T12:35:07.376Z,101488.09
2023-05-06T12:37:35.694Z,101488.90
2023-05-06T12:40:16.064Z,101495.29
2023-05-06T12:42:57.149Z,101501.43
2023-05-06T12:45:25.570Z,101506.44
2023-05-06T12:47:58.569Z,101511.16
2023-05-06T12:50:44.525Z,101509.30
2023-05-06T12:53:30.102Z,101512.67
2023-05-06T12:56:00.178Z,101512.90
2023-05-06T12:58:29.922Z,101510.52
2023-05-06T13:00:59.667Z,101508.52
2023-05-06T13:03:29.716Z,101517.76
2023-05-06T13:05:59.699Z,101519.29
2023-05-06T13:08:29.561Z,101520.69
2023-05-06T13:11:01.736Z,101524.54
2023-05-06T13:13:31.502Z,101520.82
2023-05-06T13:16:01.597Z,101526.58
2023-05-06T13:18:29.747Z,101524.78
2023-05-06T13:21:00.274Z,101528.16
2023-05-06T13:23:29.586Z,101526.36
2023-05-06T13:26:04.705Z,101522.59
2023-05-06T13:28:36.830Z,101524.77
2023-05-06T13:31:07.682Z,101520.00
2023-05-06T13:33:37.668Z,101519.14
2023-05-06T13:36:07.740Z,101520.29
2023-05-06T13:38:37.447Z,101520.73
2023-05-06T13:41:07.964Z,101525.15
2023-05-06T13:43:37.702Z,101531.30
2023-05-06T13:46:09.185Z,101528.81
2023-05-06T13:48:39.033Z,101528.43
2023-05-06T13:51:08.781Z,101531.48
2023-05-06T13:53:39.472Z,101528.49
2023-05-06T13:56:09.549Z,101533.08
2023-05-06T13:58:39.505Z,101537.06
2023-05-06T14:01:09.247Z,101541.45
2023-05-06T14:03:39.053Z,101542.98
2023-05-06T14:06:09.130Z,101541.41
2023-05-06T14:08:39.029Z,101542.33
2023-05-06T14:11:12.059Z,101542.92
2023-05-06T14:13:41.858Z,101537.82
2023-05-06T14:16:11.646Z,101536.30
2023-05-06T14:18:41.571Z,101538.50
2023-05-06T14:21:11.424Z,101529.20
2023-05-06T14:23:41.150Z,101527.66
2023-05-06T14:26:10.926Z,101527.30
2023-05-06T14:28:40.738Z,101530.94
2023-05-06T14:31:10.787Z,101528.33
2023-05-06T14:33:40.783Z,101526.67
2023-05-06T14:36:10.654Z,101525.94
2023-05-06T14:38:38.964Z,101529.02
2023-05-06T14:41:07.576Z,101528.98
2023-05-06T14:43:37.066Z,101529.96
2023-05-06T14:46:04.960Z,101526.54
2023-05-06T14:48:33.187Z,101525.98
2023-05-06T14:51:01.759Z,101519.55
2023-05-06T14:53:30.509Z,101524.79
2023-05-06T14:55:58.676Z,101529.48
2023-05-06T14:58:27.180Z,101533.75
2023-05-06T15:00:57.109Z,101534.05
2023-05-06T15:03:24.256Z,101533.95
2023-05-06T15:05:52.937Z,101539.64
2023-05-06T15:08:23.507Z,101549.20
2023-05-06T15:10:53.259Z,101552.39
2023-05-06T15:13:21.768Z,101552.79
2023-05-06T15:15:50.857Z,101558.36
2023-05-06T15:18:18.769Z,101560.45
2023-05-06T15:20:47.812Z,101560.23
2023-05-06T15:23:15.653Z,101560.48
2023-05-06T15:25:44.181Z,101561.70
2023-05-06T15:28:12.711Z,101560.58
2023-05-06T15:30:41.345Z,101562.05
2023-05-06T15:33:10.246Z,101559.89
2023-05-06T15:35:38.615Z,101556.34
2023-05-06T15:38:07.012Z,101558.55
2023-05-06T15:40:35.557Z,101557.53
2023-05-06T15:43:05.519Z,101563.30
2023-05-06T15:45:33.205Z,101564.48
2023-05-06T15:48:00.974Z,101568.01
2023-05-06T15:50:33.941Z,101567.27
2023-05-06T15:53:03.900Z,101565.96
2023-05-06T15:55:41.602Z,101568.20
2023-05-06T15:58:13.966Z,101566.25
2023-05-06T16:00:43.108Z,101568.77
2023-05-06T16:03:12.354Z,101569.14
2023-05-06T16:05:42.404Z,101568.94
2023-05-06T16:08:12.221Z,101571.67
2023-05-06T16:10:42.089Z,101568.86
2023-05-06T16:13:11.948Z,101572.06
2023-05-06T16:15:41.838Z,101572.08
2023-05-06T16:18:12.359Z,101578.03
2023-05-06T16:20:41.954Z,101577.46
2023-05-06T16:23:13.548Z,101579.57
2023-05-06T16:25:43.424Z,101575.56
2023-05-06T16:28:13.451Z,101580.55
2023-05-06T16:30:46.302Z,101578.76
2023-05-06T16:33:16.098Z,101577.95
2023-05-06T16:35:46.349Z,101583.20
2023-05-06T16:38:16.055Z,101585.50
2023-05-06T16:40:51.104Z,101589.92
2023-05-06T16:43:20.897Z,101587.50
2023-05-06T16:45:50.929Z,101585.61
2023-05-06T16:48:20.829Z,101581.57
2023-05-06T16:50:51.781Z,101588.31
2023-05-06T16:53:21.562Z,101582.11
2023-05-06T16:55:51.399Z,101585.30
2023-05-06T16:58:21.291Z,101585.77
2023-05-06T17:00:54.033Z,101586.70
2023-05-06T17:03:23.929Z,101589.64
2023-05-06T17:05:54.473Z,101586.30
2023-05-06T17:08:26.699Z,101594.79
2023-05-06T17:10:55.752Z,101593.56
2023-05-06T17:13:24.168Z,101596.59
2023-05-06T17:15:52.535Z,101597.83
2023-05-06T17:18:21.123Z,101602.27
2023-05-06T17:20:55.999Z,101605.61
2023-05-06T17:23:27.009Z,101610.84
2023-05-06T17:25:57.310Z,101611.21
2023-05-06T17:28:26.992Z,101611.84
2023-05-06T17:30:56.760Z,101612.11
2023-05-06T17:33:26.696Z,101609.30
2023-05-06T17:35:56.432Z,101606.45
2023-05-06T17:38:26.366Z,101608.13
2023-05-06T17:40:56.090Z,101609.67
2023-05-06T17:43:25.807Z,101611.13
2023-05-06T17:45:55.935Z,101611.73
2023-05-06T17:48:25.893Z,101610.04
2023-05-06T17:51:02.018Z,101609.33
2023-05-06T17:53:34.039Z,101610.55
2023-05-06T17:56:04.500Z,101610.75
2023-05-06T17:58:34.215Z,101613.80
2023-05-06T18:01:03.984Z,101616.94
2023-05-06T18:03:33.876Z,101619.48
2023-05-06T18:06:04.142Z,101617.42
2023-05-06T18:08:33.842Z,101622.73
2023-05-06T18:11:03.759Z,101621.28
2023-05-06T18:13:36.685Z,101621.41
2023-05-06T18:16:06.674Z,101627.32
2023-05-06T18:18:36.468Z,101631.66
2023-05-06T18:21:06.263Z,101628.92
2023-05-06T18:23:35.991Z,101632.47
2023-05-06T18:26:06.152Z,101629.05
2023-05-06T18:28:37.891Z,101635.80
2023-05-06T18:31:07.667Z,101640.64
2023-05-06T18:33:37.490Z,101645.17
2023-05-06T18:36:10.089Z,101642.46
2023-05-06T18:38:39.944Z,101643.80
2023-05-06T18:41:09.027Z,101648.28
2023-05-06T18:43:36.793Z,101649.10
2023-05-06T18:46:05.668Z,101649.86
2023-05-06T18:48:33.634Z,101649.87
2023-05-06T18:51:17.375Z,101652.15
2023-05-06T18:53:47.738Z,101655.39
2023-05-06T18:56:17.514Z,101654.70
2023-05-06T18:58:47.273Z,101653.70
2023-05-06T19:01:17.348Z,101655.60
2023-05-06T19:03:47.118Z,101656.64
2023-05-06T19:06:15.602Z,101657.33
2023-05-06T19:08:43.880Z,101662.33
2023-05-06T19:11:18.323Z,101665.48
2023-05-06T19:13:49.491Z,101667.65
2023-05-06T19:16:19.330Z,101669.52
2023-05-06T19:18:49.865Z,101669.25
2023-05-06T19:21:19.513Z,101673.42
2023-05-06T19:23:50.087Z,101681.09
2023-05-06T19:26:19.933Z,101674.02
2023-05-06T19:28:49.721Z,101673.96
2023-05-06T19:31:19.733Z,101675.54
2023-05-06T19:33:49.882Z,101675.48
2023-05-06T19:36:19.576Z,101671.83
2023-05-06T19:38:49.315Z,101674.55
2023-05-06T19:41:19.001Z,101673.71
2023-05-06T19:43:48.735Z,101682.34
2023-05-06T19:46:18.483Z,101678.34
2023-05-06T19:48:48.275Z,101680.12
2023-05-06T19:51:17.949Z,101677.29
2023-05-06T19:53:49.215Z,101680.77
2023-05-06T19:56:19.645Z,101679.84
2023-05-06T19:58:51.082Z,101678.05
2023-05-06T20:01:23.688Z,101672.80
2023-05-06T20:03:55.057Z,101676.11
2023-05-06T20:06:24.985Z,101675.88
2023-05-06T20:08:54.746Z,101679.15
2023-05-06T20:11:23.171Z,101680.52
2023-05-06T20:13:51.734Z,101679.79
2023-05-06T20:16:20.163Z,101683.63
2023-05-06T20:18:49.361Z,101683.33
2023-05-06T20:21:17.193Z,101683.69
2023-05-06T20:23:45.542Z,101687.44
2023-05-06T20:26:13.841Z,101686.27
2023-05-06T20:28:42.246Z,101684.58
2023-05-06T20:31:10.810Z,101684.41
2023-05-06T20:33:39.080Z,101687.05
2023-05-06T20:36:07.690Z,101689.16
2023-05-06T20:38:35.927Z,101686.66
2023-05-06T20:41:04.475Z,101686.52
2023-05-06T20:43:35.202Z,101688.78
2023-05-06T20:46:05.426Z,101692.98
2023-05-06T20:48:32.706Z,101689.97
2023-05-06T20:51:01.326Z,101688.00
2023-05-06T20:53:29.612Z,101690.23
2023-05-06T20:55:58.045Z,101692.77
2023-05-06T20:58:28.578Z,101695.84
2023-05-06T21:00:58.477Z,101693.86
2023-05-06T21:03:30.550Z,101694.73
2023-05-06T21:06:00.243Z,101695.63
2023-05-06T21:08:29.910Z,101701.11
2023-05-06T21:10:59.938Z,101702.84
2023-05-06T21:13:29.834Z,101705.55
2023-05-06T21:15:59.843Z,101702.94
2023-05-06T21:18:30.096Z,101705.85
2023-05-06T21:21:00.198Z,101709.84
2023-05-06T21:23:30.068Z,101710.02
2023-05-06T21:25:59.959Z,101705.96
2023-05-06T21:28:29.746Z,101703.29
2023-05-06T21:30:59.747Z,101702.89
2023-05-06T21:33:29.922Z,101704.50
2023-05-06T21:36:00.067Z,101704.48
2023-05-06T21:38:29.985Z,101702.05
2023-05-06T21:40:59.753Z,101705.61
2023-05-06T21:43:31.306Z,101699.98
2023-05-06T21:46:04.276Z,101704.79
2023-05-06T21:48:34.185Z,101706.03
2023-05-06T21:51:04.312Z,101702.22
2023-05-06T21:53:34.353Z,101705.46
2023-05-06T21:56:04.184Z,101709.84
2023-05-06T21:58:33.986Z,101710.21
2023-05-06T22:01:03.930Z,101710.06
2023-05-06T22:03:33.815Z,101711.48
2023-05-06T22:06:04.923Z,101708.39
2023-05-06T22:08:34.849Z,101708.40
2023-05-06T22:11:04.691Z,101709.73
2023-05-06T22:13:34.628Z,101710.63
2023-05-06T22:16:05.342Z,101712.33
2023-05-06T22:18:36.050Z,101712.70
2023-05-06T22:21:05.870Z,101715.23
2023-05-06T22:23:35.893Z,101717.19
2023-05-06T22:26:05.818Z,101714.71
2023-05-06T22:28:35.840Z,101714.56
2023-05-06T22:31:05.774Z,101717.15
2023-05-06T22:33:35.624Z,101720.02
2023-05-06T22:36:05.902Z,101723.34
2023-05-06T22:38:35.644Z,101721.66
2023-05-06T22:41:05.383Z,101718.77
2023-05-06T22:43:35.219Z,101721.96
2023-05-06T22:46:05.131Z,101720.56
2023-05-06T22:48:33.622Z,101726.16
2023-05-06T22:51:02.825Z,101719.15
2023-05-06T22:53:30.350Z,101717.33
2023-05-06T22:55:58.854Z,101718.13
2023-05-06T22:58:27.343Z,101724.23
2023-05-06T23:00:56.642Z,101725.58
2023-05-06T23:03:24.052Z,101730.58
2023-05-06T23:05:52.610Z,101730.92
2023-05-06T23:08:21.119Z,101733.54
2023-05-06T23:10:49.673Z,101731.15
2023-05-06T23:13:18.471Z,101733.98
2023-05-06T23:15:46.695Z,101736.52
2023-05-06T23:18:15.619Z,101734.36
2023-05-06T23:20:44.623Z,101730.27
2023-05-06T23:23:12.106Z,101728.81
2023-05-06T23:25:40.653Z,101726.61
2023-05-06T23:28:08.986Z,101726.12
2023-05-06T23:30:37.672Z,101725.88
2023-05-06T23:33:07.067Z,101724.69
2023-05-06T23:35:34.577Z,101720.77
2023-05-06T23:38:02.761Z,101722.59
2023-05-06T23:40:31.686Z,101726.73
2023-05-06T23:42:59.980Z,101727.80
2023-05-06T23:45:28.465Z,101732.66
2023-05-06T23:47:57.745Z,101729.52
2023-05-06T23:50:26.049Z,101734.55
2023-05-06T23:52:54.344Z,101732.95
2023-05-06T23:55:23.111Z,101730.48
2023-05-06T23:57:51.388Z,101736.38
